LTAC/ESB METAR and TAF weather

Enter ICAO airport designator
Station Type Date Time Source
LTAC METAR 2019/06/26 05:50 UTC NOAA

LTAC 260550Z 04011KT 010V080 CAVOK 24/12 Q1019 NOSIG


Station Type Date Time Source
LTAC Decoded METAR 2019/06/26 05:50 UTC NOAA

Ankara / Esenboga, Turkey (LTAC) 40-07N 032-59E 949M
Jun 26, 2019 - 01:50 AM EDT / 2019.06.26 0550 UTC
Wind: from the NE (040 degrees) at 13 MPH (11 KT) (direction variable):0
Visibility: greater than 7 mile(s):0
Temperature: 75 F (24 C)
Dew Point: 53 F (12 C)
Relative Humidity: 46%
Pressure (altimeter): 30.09 in. Hg (1019 hPa)
ob: LTAC 260550Z 04011KT 010V080 CAVOK 24/12 Q1019 NOSIG
cycle: 6

Station Type Date Time Source
LTAC TAF 2019/06/26 06:03 UTC NOAA

TAF TAF LTAC 260440Z 2606/2706 03008KT CAVOK
BECMG 2606/2608 SCT040 PROB30
TEMPO 2613/2617 03015G25KT -TSRA FEW025CB BKN035
BECMG 2619/2621 CAVOK

Example: see airport list